Airfield :
LOGIN :

Register | Disclaimer

   EN    FR    IT 

 










Legend :    VFR   Marginal VFR   IFR   Intensive IFR   Very Intensive IFR
Visi :
Ceiling :
>= 8 km
>= 3000ft
5 to 8 km
1000 to 3000 ft
1500m to 5 km
500 to 1000 ft
800 to 1500m
200 to 500 ft
< 800m
< 200 ft
Symbols :   Thunderstorms  Fog  Heavy snow  Heavy precipitations  Wind > 20 kt
SIGMETs :     Misc.  Thunderstorms  Icing  Turbulence  Mountain Waves  Volcanic Ashes






- Airport Elevation : 10 ft
- IATA code : MOL


ENML - Molde

CURRENT METAR :
  • 280450Z 02006KT 9999 FEW035 BKN120 12/11 Q1011

EXPIRED METARs :
  • 280420Z 04004KT 340V070 9999 FEW030 BKN120 12/11 Q1010
  • 280350Z 03008KT 9999 FEW030 SCT090 12/11 Q1010
  • 280320Z AUTO 01004KT 9999NDV FEW046/// BKN096/// 13/11 Q1009
  • 280250Z AUTO VRB02KT 9999NDV -RA BKN052/// OVC070/// 13/11 Q1009
  • 280220Z AUTO 29006KT 250V320 9999NDV -RA BKN052/// 13/11 Q1009

Expired Forecast.



MET'MAP, your aeronautical weather chart ! - Copyright ORBIFLY December 2007 - Disclaimer

ORBIFLY MET'MAP TEAM :

Programming & Development : Alexandra Zaïnal
Concept & original design : Baudouin d'Aumeries
Assistance for programming : Marc-Olivier Méhu
Technical & hardware support : Manuel Goepfert

Contact : metmap@orbifly.com




SOURCES & CREDITS :

   NOAA